Mitchell, GA (30820)

7:00 AM EST on December 29, 2014 (GMT -0500)
Kaolin | Change Station
CLOSE
Current Station
Airport
Location: Sandersville Kaolin Field Air,
Elevation: 436 ft
Nearby Weather Stations

Elev 436 ft 32.97 °N, 82.84 °W | Updated 5 minutes ago

Overcast
Overcast
56 °F
Feels Like 56 °F
N
5
Wind Variable Wind from North

Today
High -- | Low -- °F
--% Chance of Precip.
Yesterday
High -- | Low -- °F
Precip. -- in
7:33 AM 5:32 PM
First Quarter, 58% visible
Pressure 30.07 in
Visibility 10.0 miles
Clouds Scattered Clouds 4300 ft
Mostly Cloudy 6000 ft
Overcast 9500 ft
Dew Point 55 °F
Humidity 96%
Rainfall 0.00 in
Snow Depth Not available.
UV 0 out of 12
Pollen .10 out of 12
Air Quality Not available.
Flu Activity Not available.
METAR KOKZ 291155Z AUTO 35004KT 10SM SCT043 BKN060 OVC095 13/13 A3007 RMK AO2 T01330127 10166 20133

More Conditions Fewer Conditions

Pressure 30.07 in
Visibility 10.0 miles
Clouds Scattered Clouds 4300 ft
Mostly Cloudy 6000 ft
Overcast 9500 ft
Dew Point 55 °F
Humidity 96%
Rainfall 0.00 in
Snow Depth Not available.
UV 0 out of 12
Pollen .10 out of 12
Air Quality Not available.
Flu Activity Not available.
METAR KOKZ 291155Z AUTO 35004KT 10SM SCT043 BKN060 OVC095 13/13 A3007 RMK AO2 T01330127 10166 20133

More Conditions Fewer Conditions

10-Day Weather Forecast

Almanac

Astronomy

Dec. 29, 2014 Rise Set
Actual Time
Civil Twilight
Nautical Twilight
Astronomical Twilight
Moon
Length of Visible Light
Length of Day
Tomorrow will be .
, % of the Moon is Illuminated

Today's Extremes

State Highs State Lows

Community

WunderPhotos

Upload Photos

1,781,573 photos uploaded!

WunderBlogs® & News

Nearby

Air Quality

  Air Quality AQ Index Pollutant
Not available.

Snow Depth

Station Depth Elevation

Earthquake Activity

City Distance Mag. Time & Date
Minimum magnitude displayed is 2.5.

Coastal Water Temperatures

Place Temperature

Nearby Weather Stations